createdAt,value
2022-10-20T00:00:20.497Z,97445.53
2022-10-20T00:02:47.158Z,97448.59
2022-10-20T00:05:13.777Z,97370.84
2022-10-20T00:07:40.429Z,97261.78
2022-10-20T00:10:07.281Z,97361.56
2022-10-20T00:12:34.153Z,97469.41
2022-10-20T00:15:01.031Z,97469.63
2022-10-20T00:17:27.600Z,97492.19
2022-10-20T00:19:54.235Z,97472.78
2022-10-20T00:22:20.833Z,97381.59
2022-10-20T00:24:47.397Z,97231.97
2022-10-20T00:27:14.127Z,97440.53
2022-10-20T00:29:40.859Z,97457.91
2022-10-20T00:32:07.508Z,97409.31
2022-10-20T00:34:34.061Z,97479.94
2022-10-20T00:37:00.686Z,97397.09
2022-10-20T00:39:27.549Z,97413.94
2022-10-20T00:41:54.132Z,97432.25
2022-10-20T00:44:51.797Z,97499.75
2022-10-20T00:47:26.386Z,97399.09
2022-10-20T00:49:53.059Z,97430.84
2022-10-20T00:52:20.817Z,97396.47
2022-10-20T00:54:47.450Z,97417.81
2022-10-20T00:57:14.212Z,97209.97
2022-10-20T00:59:41.043Z,97441.38
2022-10-20T01:02:07.779Z,97501.06
2022-10-20T01:04:34.476Z,97509.53
2022-10-20T01:07:01.046Z,97382.41
2022-10-20T01:09:27.649Z,97424.41
2022-10-20T01:12:16.040Z,97237.47
2022-10-20T01:15:04.582Z,97486.63
2022-10-20T01:17:43.370Z,97481.38
2022-10-20T01:20:22.318Z,97226.47
2022-10-20T01:23:19.646Z,97476.72
2022-10-20T01:26:08.465Z,97270.50
2022-10-20T01:28:57.459Z,97424.59
2022-10-20T01:31:41.649Z,97447.66
2022-10-20T01:34:36.110Z,97472.97
2022-10-20T01:37:10.729Z,97472.84
2022-10-20T01:39:49.859Z,97474.38
2022-10-20T01:42:19.697Z,97372.09
2022-10-20T01:44:46.388Z,97386.22
2022-10-20T01:47:13.003Z,97318.31
2022-10-20T01:49:44.899Z,97445.72
2022-10-20T01:52:12.008Z,97407.78
2022-10-20T01:54:38.581Z,97236.13
2022-10-20T01:57:14.515Z,97466.88
2022-10-20T02:00:02.006Z,97468.22
2022-10-20T02:02:59.459Z,97466.28
2022-10-20T02:05:38.151Z,97480.63
2022-10-20T02:08:38.673Z,97178.66
2022-10-20T02:11:06.127Z,97444.78
2022-10-20T02:13:32.721Z,97304.25
2022-10-20T02:16:01.182Z,97373.78
2022-10-20T02:18:30.603Z,97428.84
2022-10-20T02:20:57.919Z,97360.88
2022-10-20T02:23:24.525Z,97373.34
2022-10-20T02:25:51.884Z,97358.69
2022-10-20T02:28:18.620Z,97407.34
2022-10-20T02:30:45.219Z,97191.31
2022-10-20T02:33:11.811Z,97422.00
2022-10-20T02:35:38.451Z,97444.06
2022-10-20T02:38:05.078Z,97414.72
2022-10-20T02:40:31.834Z,97416.00
2022-10-20T02:42:58.467Z,97359.31
2022-10-20T02:45:25.014Z,97417.75
2022-10-20T02:47:51.617Z,97403.84
2022-10-20T02:50:18.386Z,97428.22
2022-10-20T02:52:45.013Z,97431.53
2022-10-20T02:55:11.726Z,97452.53
2022-10-20T02:57:38.844Z,97391.50
2022-10-20T03:00:06.933Z,97455.31
2022-10-20T03:02:33.566Z,97413.09
2022-10-20T03:05:00.185Z,97408.50
2022-10-20T03:07:26.775Z,97381.16
2022-10-20T03:09:53.388Z,97154.66
2022-10-20T03:12:20.110Z,97497.97
2022-10-20T03:14:46.832Z,97458.63
2022-10-20T03:17:13.497Z,97434.25
2022-10-20T03:19:41.397Z,97509.91
2022-10-20T03:22:07.963Z,97460.38
2022-10-20T03:24:34.588Z,97424.31
2022-10-20T03:27:01.216Z,97462.81
2022-10-20T03:29:27.940Z,97418.41
2022-10-20T03:31:54.528Z,97416.09
2022-10-20T03:34:21.134Z,97482.81
2022-10-20T03:36:47.690Z,97417.25
2022-10-20T03:39:14.459Z,97373.84
2022-10-20T03:41:41.019Z,97384.16
2022-10-20T03:44:07.727Z,97445.13
2022-10-20T03:46:34.398Z,97274.63
2022-10-20T03:49:00.998Z,97473.66
2022-10-20T03:51:27.562Z,97369.97
2022-10-20T03:53:54.158Z,97422.69
2022-10-20T03:56:21.226Z,97381.44
2022-10-20T03:58:47.885Z,97258.69
2022-10-20T04:01:18.957Z,97115.03
2022-10-20T04:03:45.634Z,97430.13
2022-10-20T04:06:12.959Z,97391.88
2022-10-20T04:08:39.599Z,97411.63
2022-10-20T04:11:06.285Z,97451.22
2022-10-20T04:13:33.113Z,97376.84
2022-10-20T04:16:00.206Z,97446.25
2022-10-20T04:18:26.844Z,97404.09
2022-10-20T04:20:53.419Z,97470.66
2022-10-20T04:23:20.026Z,97497.25
2022-10-20T04:25:48.696Z,97446.25
2022-10-20T04:28:16.055Z,97420.28
2022-10-20T04:30:42.691Z,97321.19
2022-10-20T04:33:09.343Z,97442.81
2022-10-20T04:35:36.040Z,97382.66
2022-10-20T04:38:02.679Z,97439.69
2022-10-20T04:40:29.298Z,97346.84
2022-10-20T04:42:56.250Z,97411.09
2022-10-20T04:45:22.902Z,97421.63
2022-10-20T04:47:49.446Z,97372.59
2022-10-20T04:50:16.107Z,97424.34
2022-10-20T04:52:42.725Z,97434.56
2022-10-20T04:55:09.465Z,97424.91
2022-10-20T04:57:36.497Z,97417.50
2022-10-20T05:00:03.607Z,97283.13
2022-10-20T05:02:30.147Z,97436.50
2022-10-20T05:04:56.718Z,97404.34
2022-10-20T05:07:23.349Z,97233.44
2022-10-20T05:09:49.919Z,97388.78
2022-10-20T05:12:16.492Z,97324.69
2022-10-20T05:14:43.101Z,97264.25
2022-10-20T05:17:10.106Z,97444.84
2022-10-20T05:19:36.855Z,97427.53
2022-10-20T05:22:03.480Z,97448.94
2022-10-20T05:24:30.303Z,97412.53
2022-10-20T05:26:56.929Z,97433.69
2022-10-20T05:29:24.059Z,97432.84
2022-10-20T05:31:50.752Z,97272.56
2022-10-20T05:34:17.311Z,97347.31
2022-10-20T05:36:43.889Z,97419.91
2022-10-20T05:39:10.665Z,97382.00
2022-10-20T05:41:38.921Z,97425.69
2022-10-20T05:44:06.717Z,97418.34
2022-10-20T05:46:34.517Z,97457.31
2022-10-20T05:49:02.581Z,97350.38
2022-10-20T05:51:31.090Z,97451.41
2022-10-20T05:53:58.490Z,97421.69
2022-10-20T05:56:25.722Z,97442.16
2022-10-20T05:58:52.353Z,97359.16
2022-10-20T06:01:49.346Z,97351.34
2022-10-20T06:04:20.843Z,97319.06
2022-10-20T06:06:48.995Z,97438.78
2022-10-20T06:09:16.000Z,97404.69
2022-10-20T06:11:42.576Z,97457.88
2022-10-20T06:14:09.231Z,97460.59
2022-10-20T06:16:36.039Z,97408.75
2022-10-20T06:19:02.878Z,97204.31
2022-10-20T06:21:30.880Z,97251.66
2022-10-20T06:24:01.172Z,97423.28
2022-10-20T06:26:33.140Z,97270.16
2022-10-20T06:29:04.734Z,97474.00
2022-10-20T06:31:39.454Z,97438.31
2022-10-20T06:34:07.408Z,97460.50
2022-10-20T06:36:37.692Z,97403.94
2022-10-20T06:39:05.258Z,97441.03
2022-10-20T06:41:31.811Z,97435.41
2022-10-20T06:43:59.701Z,97465.38
2022-10-20T06:46:28.631Z,97412.25
2022-10-20T06:48:58.575Z,97461.38
2022-10-20T06:51:25.700Z,97460.25
2022-10-20T06:53:52.332Z,97413.72
2022-10-20T06:56:29.095Z,97436.13
2022-10-20T06:58:56.358Z,97421.00
2022-10-20T07:01:23.706Z,97511.28
2022-10-20T07:03:51.054Z,97433.53
2022-10-20T07:06:19.669Z,97393.47
2022-10-20T07:08:46.486Z,97419.22
2022-10-20T07:11:17.762Z,97467.03
2022-10-20T07:13:44.448Z,97457.53
2022-10-20T07:16:15.736Z,97372.50
2022-10-20T07:21:15.730Z,97468.09
2022-10-20T07:23:42.360Z,97378.38
2022-10-20T07:26:13.880Z,97482.25
2022-10-20T07:28:42.626Z,97433.72
2022-10-20T07:31:11.645Z,97442.06
2022-10-20T07:33:38.249Z,97531.38
2022-10-20T07:36:15.659Z,97527.66
2022-10-20T07:38:42.286Z,97411.59
2022-10-20T07:41:09.147Z,97465.22
2022-10-20T07:43:36.274Z,97276.47
2022-10-20T07:46:02.947Z,97465.56
2022-10-20T07:48:29.718Z,97475.31
2022-10-20T07:53:46.932Z,97442.75
2022-10-20T07:56:13.853Z,97413.38
2022-10-20T07:58:40.614Z,97335.38
2022-10-20T08:01:07.411Z,97507.03
2022-10-20T08:03:34.135Z,97500.16
2022-10-20T08:06:00.874Z,97482.09
2022-10-20T08:08:27.598Z,97432.66
2022-10-20T08:10:54.376Z,97470.72
2022-10-20T08:13:21.012Z,97454.72
2022-10-20T08:15:49.998Z,97430.00
2022-10-20T08:18:19.412Z,97380.94
2022-10-20T08:20:46.303Z,97475.59
2022-10-20T08:23:13.535Z,97362.19
2022-10-20T08:25:40.316Z,97400.28
2022-10-20T08:28:07.126Z,97461.28
2022-10-20T08:30:33.799Z,97410.63
2022-10-20T08:33:00.559Z,97386.53
2022-10-20T08:35:27.179Z,97423.00
2022-10-20T08:37:53.797Z,97371.56
2022-10-20T08:40:30.333Z,97375.53
2022-10-20T08:42:56.956Z,97338.22
2022-10-20T08:45:24.751Z,97323.94
2022-10-20T08:47:53.230Z,97368.13
2022-10-20T08:50:21.271Z,97352.94
2022-10-20T08:52:51.443Z,97416.13
2022-10-20T08:55:28.521Z,97456.25
2022-10-20T08:57:58.870Z,97413.28
2022-10-20T09:00:25.840Z,97359.84
2022-10-20T09:02:52.486Z,97444.94
2022-10-20T09:05:26.208Z,97213.97
2022-10-20T09:07:52.869Z,97349.50
2022-10-20T09:10:22.395Z,97439.84
2022-10-20T09:12:49.071Z,97378.00
2022-10-20T09:15:16.507Z,97286.06
2022-10-20T09:17:59.087Z,97262.50
2022-10-20T09:20:32.081Z,97349.69
2022-10-20T09:23:01.305Z,97391.06
2022-10-20T09:25:30.846Z,97351.09
2022-10-20T09:27:57.674Z,97284.13
2022-10-20T09:30:35.401Z,97404.81
2022-10-20T09:33:20.274Z,97227.53
2022-10-20T09:35:47.196Z,97147.16
2022-10-20T09:38:22.617Z,97427.38
2022-10-20T09:40:58.354Z,97427.84
2022-10-20T09:43:24.957Z,97176.69
2022-10-20T09:46:04.390Z,97289.75
2022-10-20T09:48:38.918Z,97299.63
2022-10-20T09:51:06.527Z,97371.41
2022-10-20T09:53:50.600Z,97179.97
2022-10-20T09:56:33.440Z,97393.13
2022-10-20T09:59:00.860Z,97298.38
2022-10-20T10:01:27.601Z,97377.94
2022-10-20T10:03:59.787Z,97388.69
2022-10-20T10:06:43.010Z,97415.03
2022-10-20T10:09:31.922Z,97414.22
2022-10-20T10:12:05.835Z,97356.75
2022-10-20T10:14:33.546Z,97315.91
2022-10-20T10:17:00.580Z,97193.03
2022-10-20T10:19:31.952Z,97145.00
2022-10-20T10:22:00.167Z,97283.63
2022-10-20T10:24:38.270Z,97329.75
2022-10-20T10:27:05.141Z,97302.38
2022-10-20T10:29:34.287Z,97219.50
2022-10-20T10:32:17.388Z,97290.53
2022-10-20T10:35:07.908Z,97391.56
2022-10-20T10:37:35.268Z,97242.25
2022-10-20T10:40:05.770Z,97335.72
2022-10-20T10:42:57.113Z,97266.28
2022-10-20T10:45:42.360Z,97383.84
2022-10-20T10:48:19.004Z,97383.06
2022-10-20T10:50:58.128Z,97197.38
2022-10-20T10:54:05.144Z,97314.94
2022-10-20T10:56:51.381Z,97318.91
2022-10-20T10:59:21.681Z,97370.44
2022-10-20T11:02:16.838Z,97356.25
2022-10-20T11:04:43.320Z,97357.41
2022-10-20T11:07:30.443Z,97362.97
2022-10-20T11:10:21.158Z,97353.53
2022-10-20T11:12:47.655Z,97346.72
2022-10-20T11:15:38.494Z,97345.41
2022-10-20T11:18:23.805Z,97341.50
2022-10-20T11:20:53.369Z,97338.25
2022-10-20T11:23:47.982Z,97331.88
2022-10-20T11:26:28.191Z,97329.75
2022-10-20T11:28:56.322Z,97204.50
2022-10-20T11:31:42.548Z,97321.78
2022-10-20T11:34:14.845Z,97310.19
2022-10-20T11:36:49.768Z,97153.75
2022-10-20T11:39:25.506Z,97323.25
2022-10-20T11:41:53.763Z,97243.22
2022-10-20T11:44:25.748Z,97205.34
2022-10-20T11:47:12.935Z,97129.13
2022-10-20T11:49:40.324Z,97088.06
2022-10-20T11:52:22.144Z,97300.19
2022-10-20T11:54:57.664Z,97299.56
2022-10-20T11:57:24.175Z,97287.31
2022-10-20T12:03:34.028Z,97281.44
2022-10-20T12:06:38.225Z,97285.81
2022-10-20T12:09:42.424Z,97284.38
2022-10-20T12:12:13.275Z,97283.22
2022-10-20T12:14:44.935Z,96958.69
2022-10-20T12:17:20.474Z,97273.75
2022-10-20T12:19:49.832Z,97267.22
2022-10-20T12:22:16.331Z,97276.84
2022-10-20T12:24:52.009Z,97271.16
2022-10-20T12:27:27.661Z,97215.81
2022-10-20T12:30:24.553Z,97122.97
2022-10-20T12:32:53.793Z,97081.34
2022-10-20T12:35:20.300Z,97261.84
2022-10-20T12:38:02.614Z,97116.75
2022-10-20T12:40:34.156Z,97104.81
2022-10-20T12:43:00.760Z,97137.31
2022-10-20T12:45:39.707Z,97018.09
2022-10-20T12:48:07.039Z,97105.00
2022-10-20T12:50:44.812Z,97210.72
2022-10-20T12:53:17.486Z,97256.63
2022-10-20T12:55:53.992Z,97217.25
2022-10-20T12:58:20.427Z,97256.13
2022-10-20T13:00:46.944Z,97262.47
2022-10-20T13:03:32.061Z,97256.28
2022-10-20T13:05:59.162Z,97206.63
2022-10-20T13:08:29.966Z,97245.47
2022-10-20T13:10:57.244Z,97132.03
2022-10-20T13:13:23.756Z,97244.16
2022-10-20T13:15:52.057Z,97139.56
2022-10-20T13:18:25.962Z,97038.16
2022-10-20T13:20:56.285Z,97214.44
2022-10-20T13:23:27.689Z,97248.91
2022-10-20T13:25:58.610Z,97206.09
2022-10-20T13:28:29.182Z,97244.13
2022-10-20T13:30:55.704Z,97255.03
2022-10-20T13:33:38.888Z,97235.13
2022-10-20T13:36:35.663Z,97245.09
2022-10-20T13:39:26.165Z,97247.72
2022-10-20T13:42:10.903Z,97247.84
2022-10-20T13:44:46.395Z,97248.00
2022-10-20T13:47:51.444Z,97242.44
2022-10-20T13:50:21.910Z,97182.81
2022-10-20T13:52:54.106Z,97167.63
2022-10-20T13:55:23.404Z,97047.44
2022-10-20T13:58:17.392Z,97136.56
2022-10-20T14:00:44.009Z,97197.50
2022-10-20T14:03:17.477Z,97179.03
2022-10-20T14:05:44.081Z,97144.41
2022-10-20T14:08:11.675Z,97214.16
2022-10-20T14:10:57.555Z,97224.94
2022-10-20T14:13:34.821Z,96938.38
2022-10-20T14:16:02.327Z,97145.81
2022-10-20T14:18:30.746Z,97195.31
2022-10-20T14:21:04.622Z,97115.63
2022-10-20T14:23:35.988Z,97186.66
2022-10-20T14:26:03.902Z,96936.63
2022-10-20T14:28:32.900Z,97072.63
2022-10-20T14:30:59.542Z,97112.56
2022-10-20T14:33:26.333Z,97224.69
2022-10-20T14:35:54.399Z,97138.38
2022-10-20T14:38:37.380Z,97186.69
2022-10-20T14:41:04.633Z,97048.75
2022-10-20T14:43:35.173Z,97220.13
2022-10-20T14:46:02.106Z,97168.63
2022-10-20T14:48:33.067Z,97098.53
2022-10-20T14:50:59.644Z,97190.91
2022-10-20T14:53:28.176Z,97147.63
2022-10-20T14:55:55.593Z,97235.91
2022-10-20T14:58:56.254Z,97145.13
2022-10-20T15:01:29.398Z,97123.91
2022-10-20T15:04:16.278Z,97215.78
2022-10-20T15:06:43.759Z,97006.66
2022-10-20T15:09:46.514Z,97216.50
2022-10-20T15:12:20.508Z,97211.53
2022-10-20T15:14:51.767Z,97080.97
2022-10-20T15:17:35.289Z,97130.75
2022-10-20T15:20:29.938Z,97209.31
2022-10-20T15:22:57.441Z,97096.63
2022-10-20T15:25:24.816Z,97035.72
2022-10-20T15:27:51.561Z,97169.66
2022-10-20T15:30:19.670Z,97085.13
2022-10-20T15:32:46.448Z,97081.38
2022-10-20T15:35:18.773Z,97171.06
2022-10-20T15:37:48.833Z,97149.75
2022-10-20T15:40:15.443Z,97094.44
2022-10-20T15:42:42.042Z,96894.91
2022-10-20T15:45:23.519Z,97187.13
2022-10-20T15:47:50.260Z,97126.06
2022-10-20T15:50:19.406Z,97099.59
2022-10-20T15:52:48.324Z,96984.75
2022-10-20T15:55:26.381Z,97133.22
2022-10-20T15:57:53.738Z,97076.94
2022-10-20T16:00:21.352Z,97014.94
2022-10-20T16:02:49.412Z,97038.72
2022-10-20T16:05:17.114Z,96852.66
2022-10-20T16:07:43.851Z,96920.31
2022-10-20T16:10:10.990Z,97043.13
2022-10-20T16:12:38.478Z,96949.22
2022-10-20T16:15:05.873Z,96978.19
2022-10-20T16:17:32.564Z,96933.72
2022-10-20T16:19:59.281Z,97022.16
2022-10-20T16:22:26.672Z,96953.88
2022-10-20T16:24:53.370Z,96819.56
2022-10-20T16:27:20.069Z,96940.09
2022-10-20T16:29:49.707Z,96906.16
2022-10-20T16:32:16.647Z,96891.72
2022-10-20T16:34:43.386Z,96881.66
2022-10-20T16:37:10.140Z,97110.88
2022-10-20T16:39:36.812Z,97032.50
2022-10-20T16:42:03.650Z,97091.78
2022-10-20T16:44:30.896Z,97207.16
2022-10-20T16:46:58.039Z,97167.28
2022-10-20T16:49:24.740Z,97118.50
2022-10-20T16:51:51.810Z,97057.19
2022-10-20T16:54:18.469Z,97224.38
2022-10-20T16:56:49.042Z,97195.06
2022-10-20T16:59:15.689Z,97106.41
2022-10-20T17:01:42.440Z,97234.94
2022-10-20T17:04:10.498Z,97120.69
2022-10-20T17:06:37.063Z,97161.06
2022-10-20T17:09:03.818Z,96965.47
2022-10-20T17:11:31.619Z,97044.41
2022-10-20T17:13:59.026Z,97107.41
2022-10-20T17:16:32.494Z,97041.00
2022-10-20T17:19:00.106Z,97054.84
2022-10-20T17:21:27.048Z,97157.25
2022-10-20T17:23:54.156Z,97227.16
2022-10-20T17:26:22.224Z,97126.25
2022-10-20T17:28:52.430Z,97205.19
2022-10-20T17:31:19.133Z,97105.44
2022-10-20T17:33:45.829Z,96961.75
2022-10-20T17:36:12.994Z,97194.13
2022-10-20T17:38:40.901Z,97159.38
2022-10-20T17:41:09.078Z,97137.22
2022-10-20T17:43:35.779Z,97210.03
2022-10-20T17:46:07.345Z,97182.13
2022-10-20T17:48:34.991Z,97143.22
2022-10-20T17:51:09.668Z,97135.25
2022-10-20T17:53:37.614Z,97021.38
2022-10-20T17:56:06.330Z,96896.50
2022-10-20T17:58:35.833Z,97115.91
2022-10-20T18:01:13.693Z,97143.31
2022-10-20T18:03:40.817Z,97020.81
2022-10-20T18:06:14.558Z,97150.59
2022-10-20T18:08:41.314Z,96892.88
2022-10-20T18:11:09.693Z,97115.81
2022-10-20T18:13:36.447Z,97136.78
2022-10-20T18:16:07.626Z,97033.31
2022-10-20T18:18:34.640Z,96986.75
2022-10-20T18:21:01.292Z,97051.34
2022-10-20T18:23:29.787Z,97107.50
2022-10-20T18:25:57.006Z,96987.00
2022-10-20T18:28:25.107Z,97088.41
2022-10-20T18:30:51.907Z,96985.28
2022-10-20T18:33:18.503Z,97110.53
2022-10-20T18:35:45.147Z,97076.75
2022-10-20T18:38:11.788Z,97045.13
2022-10-20T18:40:38.348Z,97092.47
2022-10-20T18:43:05.071Z,97074.38
2022-10-20T18:45:31.777Z,97116.78
2022-10-20T18:47:58.355Z,97134.97
2022-10-20T18:50:24.995Z,97090.19
2022-10-20T18:52:51.621Z,96956.13
2022-10-20T18:55:18.285Z,97066.19
2022-10-20T18:57:44.915Z,96912.31
2022-10-20T19:00:12.039Z,97000.75
2022-10-20T19:02:38.716Z,97027.56
2022-10-20T19:05:05.800Z,97064.31
2022-10-20T19:07:33.515Z,97110.75
2022-10-20T19:10:00.151Z,97013.41
2022-10-20T19:12:26.785Z,97095.75
2022-10-20T19:14:53.572Z,97108.81
2022-10-20T19:17:20.149Z,97044.50
2022-10-20T19:19:46.772Z,97053.47
2022-10-20T19:22:13.471Z,97112.00
2022-10-20T19:24:40.873Z,97044.31
2022-10-20T19:27:25.683Z,97101.31
2022-10-20T19:29:53.574Z,96901.03
2022-10-20T19:32:20.200Z,97123.16
2022-10-20T19:34:47.005Z,97067.91
2022-10-20T19:37:13.699Z,97095.84
2022-10-20T19:39:41.328Z,97058.69
2022-10-20T19:42:08.298Z,96854.47
2022-10-20T19:44:35.025Z,97082.56
2022-10-20T19:47:01.957Z,97053.63
2022-10-20T19:49:28.662Z,96914.34
2022-10-20T19:51:55.358Z,97163.94
2022-10-20T19:54:21.995Z,96821.63
2022-10-20T19:56:48.712Z,97059.56
2022-10-20T19:59:15.401Z,96749.78
2022-10-20T20:01:42.018Z,97022.09
2022-10-20T20:04:10.786Z,97033.53
2022-10-20T20:06:37.429Z,96995.91
2022-10-20T20:09:06.305Z,96910.34
2022-10-20T20:11:34.431Z,96906.34
2022-10-20T20:14:03.600Z,97066.47
2022-10-20T20:16:31.452Z,97056.66
2022-10-20T20:18:58.199Z,97114.88
2022-10-20T20:21:25.130Z,97008.19
2022-10-20T20:24:00.557Z,97025.03
2022-10-20T20:26:35.189Z,96947.59
2022-10-20T20:29:01.846Z,96974.66
2022-10-20T20:31:28.714Z,97062.84
2022-10-20T20:33:56.781Z,97038.03
2022-10-20T20:36:23.657Z,96856.41
2022-10-20T20:38:52.586Z,97051.06
2022-10-20T20:41:21.861Z,96904.81
2022-10-20T20:43:48.541Z,96975.84
2022-10-20T20:46:16.294Z,97140.09
2022-10-20T20:48:43.017Z,96873.94
2022-10-20T20:51:09.610Z,97008.88
2022-10-20T20:53:36.504Z,96737.47
2022-10-20T20:56:05.306Z,97030.81
2022-10-20T20:58:32.218Z,96890.25
2022-10-20T21:01:09.470Z,97104.13
2022-10-20T21:04:34.165Z,97149.09
2022-10-20T21:07:02.675Z,97070.44
2022-10-20T21:09:30.379Z,97035.94
2022-10-20T21:11:57.090Z,97050.53
2022-10-20T21:14:23.728Z,97046.97
2022-10-20T21:16:50.324Z,97016.19
2022-10-20T21:19:17.030Z,97067.41
2022-10-20T21:21:47.180Z,97004.38
2022-10-20T21:24:13.885Z,96997.53
2022-10-20T21:26:40.587Z,97020.53
2022-10-20T21:29:07.520Z,97044.63
2022-10-20T21:31:34.229Z,96944.09
2022-10-20T21:34:04.948Z,97036.09
2022-10-20T21:36:32.525Z,97117.78
2022-10-20T21:38:59.557Z,96951.19
2022-10-20T21:41:30.801Z,97006.41
2022-10-20T21:43:58.702Z,97017.38
2022-10-20T21:46:35.885Z,96854.28
2022-10-20T21:49:14.520Z,97071.47
2022-10-20T21:51:43.723Z,96912.16
2022-10-20T21:54:15.520Z,97008.72
2022-10-20T21:56:44.403Z,97035.63
2022-10-20T21:59:28.219Z,96877.59
2022-10-20T22:01:59.412Z,96992.84
2022-10-20T22:04:27.182Z,96953.06
2022-10-20T22:06:54.076Z,96920.69
2022-10-20T22:09:21.218Z,96958.44
2022-10-20T22:11:52.584Z,96928.66
2022-10-20T22:14:19.281Z,97080.38
2022-10-20T22:16:45.909Z,97104.63
2022-10-20T22:19:17.349Z,96983.31
2022-10-20T22:21:44.867Z,96915.75
2022-10-20T22:24:11.668Z,96946.84
2022-10-20T22:26:38.487Z,96940.25
2022-10-20T22:29:05.722Z,97036.97
2022-10-20T22:31:32.369Z,96800.78
2022-10-20T22:33:59.447Z,96998.41
2022-10-20T22:36:26.251Z,97067.84
2022-10-20T22:38:52.968Z,97026.44
2022-10-20T22:41:19.553Z,96992.72
2022-10-20T22:43:46.281Z,96822.53
2022-10-20T22:46:12.867Z,96874.66
2022-10-20T22:48:39.481Z,97022.44
2022-10-20T22:51:07.326Z,96954.53
2022-10-20T22:53:34.289Z,97048.59
2022-10-20T22:56:08.360Z,96931.03
2022-10-20T22:58:35.285Z,96847.78
2022-10-20T23:01:06.750Z,96854.34
2022-10-20T23:03:33.406Z,96893.88
2022-10-20T23:06:00.053Z,96873.03
2022-10-20T23:08:29.386Z,96937.81
2022-10-20T23:10:58.938Z,96811.97
2022-10-20T23:13:25.775Z,96880.34
2022-10-20T23:15:52.773Z,96968.66
2022-10-20T23:18:20.094Z,96962.13
2022-10-20T23:20:46.759Z,97046.50
2022-10-20T23:23:13.320Z,97003.50
2022-10-20T23:25:43.359Z,96977.84
2022-10-20T23:28:10.064Z,97027.31
2022-10-20T23:30:36.736Z,96777.94
2022-10-20T23:33:03.322Z,96944.28
2022-10-20T23:35:29.983Z,96758.50
2022-10-20T23:37:56.603Z,96909.84
2022-10-20T23:40:23.263Z,96996.00
2022-10-20T23:42:49.806Z,96988.50
2022-10-20T23:45:16.459Z,97048.19
2022-10-20T23:47:43.626Z,96767.81
2022-10-20T23:50:10.284Z,96871.06
2022-10-20T23:55:04.132Z,96999.25
2022-10-20T23:57:30.720Z,96958.34
2022-10-20T23:59:57.303Z,96931.63
